Astol — 9LD2250 — position and weather

sailwx.info

Track history (hours):
 
Tides and Currents Weather Stations Pressure Air Temp Water Temp Dewpoint Dewpoint Depression Visibility Wind Speed Wind Dir Waves Ship Positions

Astol

Last reported at 2017-Oct-15 11:57 UTC. Time now 2017-Oct-19 20:07 UTC.
Position N 45°35' E 036°50'.

Length 114 m; draft 2.6 m.

Type: Cargo ship. MMSI: 667949000.

Date/timePositionNaut miles runAvg speedWind from/ knotsBaromVisibWave heightAir tempDewpointWater temp
2017-Oct-15 11:57N 45°35' E 036°50'3 7.3
2017-Oct-15 11:28N 45°32' E 036°48'3 7.5
2017-Oct-15 11:00N 45°28' E 036°47'4 7.8
2017-Oct-15 10:30N 45°26' E 036°43'4 7.4
2017-Oct-15 10:01N 45°22' E 036°40'4 7.6
2017-Oct-15 09:30N 45°20' E 036°36'4 8.3
2017-Oct-15 09:00N 45°19' E 036°30'4 7.0
2017-Oct-15 08:30N 45°15' E 036°29'1 2.3
2017-Oct-15 08:00N 45°14' E 036°29'1 2.9
2017-Oct-15 07:30N 45°13' E 036°29'2 3.3
2017-Oct-15 07:00N 45°11' E 036°30'1 0.4
2017-Oct-15 05:23N 45°11' E 036°31'0 0.0
2017-Oct-15 04:56N 45°11' E 036°31'0 0.0
2017-Oct-15 04:20N 45°11' E 036°31'0 0.1
2017-Oct-15 03:59N 45°11' E 036°31'0 0.0
2017-Oct-15 02:29N 45°11' E 036°31'1 3.1
2017-Oct-15 02:00N 45°11' E 036°29'  
2017-Oct-09 11:42N 45°04' E 036°29'2 6.6
2017-Oct-09 11:26N 45°06' E 036°29'3 6.8
2017-Oct-09 10:58N 45°09' E 036°29'3 7.2
2017-Oct-09 10:30N 45°13' E 036°28'3 6.8
2017-Oct-09 10:00N 45°16' E 036°28'3 5.6
2017-Oct-09 09:30N 45°19' E 036°30'3 6.0
2017-Oct-09 09:00N 45°20' E 036°34'3 5.5
2017-Oct-09 08:30N 45°21' E 036°38'3 5.8
2017-Oct-09 08:00N 45°23' E 036°40'3 5.3
2017-Oct-09 07:30N 45°26' E 036°39'3 5.8
2017-Oct-09 07:00N 45°28' E 036°37'1 2.3
2017-Oct-09 06:28N 45°29' E 036°36'0 0.0
2017-Oct-09 05:58N 45°29' E 036°36'0 0.0
2017-Oct-09 04:55N 45°29' E 036°36'0 0.0
2017-Oct-09 01:19N 45°29' E 036°36'0 0.0
2017-Oct-09 00:58N 45°29' E 036°36'0 0.0
2017-Oct-09 00:28N 45°29' E 036°36'0 0.0
2017-Oct-08 23:16N 45°29' E 036°36'0 0.0
2017-Oct-08 00:25N 45°29' E 036°36'0 0.0
2017-Oct-07 22:31N 45°29' E 036°36'0 0.0
2017-Oct-07 22:25N 45°29' E 036°36'0 0.0
2017-Oct-07 07:25N 45°29' E 036°36'0 0.0
2017-Oct-07 05:01N 45°29' E 036°36'0 0.0
2017-Oct-06 23:25N 45°29' E 036°36'0 0.0
2017-Oct-06 04:57N 45°29' E 036°36'3 6.1
2017-Oct-06 04:30N 45°30' E 036°39'3 6.8
2017-Oct-06 04:00N 45°31' E 036°44'4 6.7
2017-Oct-06 03:27N 45°34' E 036°47'3 6.8
2017-Oct-06 03:00N 45°37' E 036°49'  
Track history (hours):
 
Tides and Currents Weather Stations Pressure Air Temp Water Temp Dewpoint Dewpoint Depression Visibility Wind Speed Wind Dir Waves Ship Positions

Astol

Last reported at 2017-Oct-15 11:57 UTC. Time now 2017-Oct-19 20:07 UTC.
Position N 45°35' E 036°50'.

Length 114 m; draft 2.6 m.

Type: Cargo ship. MMSI: 667949000.

Date/timePositionNaut miles runAvg speedWind from/ knotsBaromVisibWave heightAir tempDewpointWater temp
2017-Oct-15 11:57N 45°35' E 036°50'3 7.3
2017-Oct-15 11:28N 45°32' E 036°48'3 7.5
2017-Oct-15 11:00N 45°28' E 036°47'4 7.8
2017-Oct-15 10:30N 45°26' E 036°43'4 7.4
2017-Oct-15 10:01N 45°22' E 036°40'4 7.6
2017-Oct-15 09:30N 45°20' E 036°36'4 8.3
2017-Oct-15 09:00N 45°19' E 036°30'4 7.0
2017-Oct-15 08:30N 45°15' E 036°29'1 2.3
2017-Oct-15 08:00N 45°14' E 036°29'1 2.9
2017-Oct-15 07:30N 45°13' E 036°29'2 3.3
2017-Oct-15 07:00N 45°11' E 036°30'1 0.4
2017-Oct-15 05:23N 45°11' E 036°31'0 0.0
2017-Oct-15 04:56N 45°11' E 036°31'0 0.0
2017-Oct-15 04:20N 45°11' E 036°31'0 0.1
2017-Oct-15 03:59N 45°11' E 036°31'0 0.0
2017-Oct-15 02:29N 45°11' E 036°31'1 3.1
2017-Oct-15 02:00N 45°11' E 036°29'  
2017-Oct-09 11:42N 45°04' E 036°29'2 6.6
2017-Oct-09 11:26N 45°06' E 036°29'3 6.8
2017-Oct-09 10:58N 45°09' E 036°29'3 7.2
2017-Oct-09 10:30N 45°13' E 036°28'3 6.8
2017-Oct-09 10:00N 45°16' E 036°28'3 5.6
2017-Oct-09 09:30N 45°19' E 036°30'3 6.0
2017-Oct-09 09:00N 45°20' E 036°34'3 5.5
2017-Oct-09 08:30N 45°21' E 036°38'3 5.8
2017-Oct-09 08:00N 45°23' E 036°40'3 5.3
2017-Oct-09 07:30N 45°26' E 036°39'3 5.8
2017-Oct-09 07:00N 45°28' E 036°37'1 2.3
2017-Oct-09 06:28N 45°29' E 036°36'0 0.0
2017-Oct-09 05:58N 45°29' E 036°36'0 0.0
2017-Oct-09 04:55N 45°29' E 036°36'0 0.0
2017-Oct-09 01:19N 45°29' E 036°36'0 0.0
2017-Oct-09 00:58N 45°29' E 036°36'0 0.0
2017-Oct-09 00:28N 45°29' E 036°36'0 0.0
2017-Oct-08 23:16N 45°29' E 036°36'0 0.0
2017-Oct-08 00:25N 45°29' E 036°36'0 0.0
2017-Oct-07 22:31N 45°29' E 036°36'0 0.0
2017-Oct-07 22:25N 45°29' E 036°36'0 0.0
2017-Oct-07 07:25N 45°29' E 036°36'0 0.0
2017-Oct-07 05:01N 45°29' E 036°36'0 0.0
2017-Oct-06 23:25N 45°29' E 036°36'0 0.0
2017-Oct-06 04:57N 45°29' E 036°36'3 6.1
2017-Oct-06 04:30N 45°30' E 036°39'3 6.8
2017-Oct-06 04:00N 45°31' E 036°44'4 6.7
2017-Oct-06 03:27N 45°34' E 036°47'3 6.8
2017-Oct-06 03:00N 45°37' E 036°49'  

Dump ship's entire track history